createdAt,value
2019-02-28T00:00:41.420Z,2.35
2019-02-28T00:03:11.759Z,2.38
2019-02-28T00:05:40.413Z,2.23
2019-02-28T00:08:09.061Z,2.62
2019-02-28T00:10:37.693Z,2.49
2019-02-28T00:13:06.401Z,2.64
2019-02-28T00:15:35.588Z,2.05
2019-02-28T00:18:04.272Z,1.90
2019-02-28T00:20:32.912Z,1.77
2019-02-28T00:23:01.502Z,1.78
2019-02-28T00:25:30.040Z,1.69
2019-02-28T00:27:58.721Z,1.76
2019-02-28T00:30:27.344Z,1.65
2019-02-28T00:32:58.837Z,2.01
2019-02-28T00:35:26.811Z,1.88
2019-02-28T00:37:56.639Z,1.76
2019-02-28T00:40:25.733Z,1.75
2019-02-28T00:42:54.304Z,1.73
2019-02-28T00:45:24.225Z,1.64
2019-02-28T00:47:52.793Z,1.95
2019-02-28T00:50:21.404Z,2.04
2019-02-28T00:52:49.954Z,1.64
2019-02-28T00:55:18.627Z,1.64
2019-02-28T00:57:47.233Z,1.54
2019-02-28T01:00:18.177Z,1.75
2019-02-28T01:02:52.030Z,1.74
2019-02-28T01:05:17.092Z,1.83
2019-02-28T01:07:48.264Z,1.96
2019-02-28T01:10:16.231Z,2.17
2019-02-28T01:12:44.736Z,2.25
2019-02-28T01:15:15.646Z,1.96
2019-02-28T01:17:44.661Z,2.24
2019-02-28T01:20:16.223Z,2.07
2019-02-28T01:22:44.290Z,2.26
2019-02-28T01:25:15.068Z,2.27
2019-02-28T01:27:43.576Z,2.54
2019-02-28T01:30:14.267Z,2.51
2019-02-28T01:32:43.200Z,2.61
2019-02-28T01:35:12.305Z,3.24
2019-02-28T01:37:40.839Z,2.69
2019-02-28T01:40:12.168Z,2.83
2019-02-28T01:42:40.693Z,2.56
2019-02-28T01:45:11.120Z,2.62
2019-02-28T01:47:39.677Z,2.75
2019-02-28T01:50:10.312Z,2.78
2019-02-28T01:52:44.369Z,3.39
2019-02-28T01:55:10.782Z,3.84
2019-02-28T01:57:42.891Z,3.80
2019-02-28T02:00:15.565Z,3.96
2019-02-28T02:02:44.196Z,5.11
2019-02-28T02:05:17.010Z,5.13
2019-02-28T02:07:44.128Z,5.05
2019-02-28T02:10:21.304Z,5.50
2019-02-28T02:12:48.453Z,5.65
2019-02-28T02:15:17.839Z,6.58
2019-02-28T02:17:47.501Z,6.19
2019-02-28T02:20:16.918Z,6.24
2019-02-28T02:22:45.700Z,6.40
2019-02-28T02:25:14.890Z,6.22
2019-02-28T02:27:43.435Z,6.10
2019-02-28T02:30:20.613Z,6.25
2019-02-28T02:32:49.302Z,6.62
2019-02-28T02:35:17.921Z,6.59
2019-02-28T02:37:46.552Z,6.68
2019-02-28T02:40:17.844Z,6.57
2019-02-28T02:42:48.548Z,7.03
2019-02-28T02:45:16.739Z,6.74
2019-02-28T02:47:45.315Z,6.69
2019-02-28T02:50:15.049Z,6.77
2019-02-28T02:52:43.870Z,6.87
2019-02-28T02:55:13.745Z,6.69
2019-02-28T02:57:42.467Z,7.09
2019-02-28T03:00:16.475Z,7.25
2019-02-28T03:02:45.399Z,6.98
2019-02-28T03:05:14.730Z,7.23
2019-02-28T03:07:43.670Z,7.07
2019-02-28T03:10:18.032Z,6.95
2019-02-28T03:12:47.501Z,7.17
2019-02-28T03:15:25.263Z,7.23
2019-02-28T03:17:48.745Z,7.02
2019-02-28T03:20:18.160Z,6.86
2019-02-28T03:22:47.006Z,7.07
2019-02-28T03:25:17.291Z,6.96
2019-02-28T03:27:45.904Z,7.11
2019-02-28T03:30:27.662Z,6.98
2019-02-28T03:32:49.767Z,7.12
2019-02-28T03:35:18.364Z,6.96
2019-02-28T03:37:47.181Z,6.58
2019-02-28T03:40:16.043Z,6.66
2019-02-28T03:42:44.746Z,6.65
2019-02-28T03:45:15.535Z,6.80
2019-02-28T03:47:44.107Z,6.69
2019-02-28T03:50:13.106Z,6.93
2019-02-28T03:52:43.751Z,6.56
2019-02-28T03:55:14.720Z,6.67
2019-02-28T03:57:43.346Z,6.63
2019-02-28T04:00:23.526Z,6.64
2019-02-28T04:02:56.792Z,6.79
2019-02-28T04:05:27.182Z,6.94
2019-02-28T04:07:54.719Z,6.76
2019-02-28T04:10:23.053Z,6.59
2019-02-28T04:12:51.663Z,6.67
2019-02-28T04:15:20.960Z,6.77
2019-02-28T04:17:49.701Z,6.78
2019-02-28T04:20:18.503Z,6.68
2019-02-28T04:22:47.203Z,6.54
2019-02-28T04:25:22.843Z,6.61
2019-02-28T04:27:46.105Z,6.69
2019-02-28T04:30:17.412Z,6.94
2019-02-28T04:32:46.727Z,7.07
2019-02-28T04:35:15.256Z,7.11
2019-02-28T04:37:46.514Z,6.98
2019-02-28T04:40:14.438Z,7.12
2019-02-28T04:42:43.004Z,7.00
2019-02-28T04:45:13.424Z,6.89
2019-02-28T04:47:42.057Z,6.99
2019-02-28T04:50:11.943Z,6.82
2019-02-28T04:52:46.389Z,6.88
2019-02-28T04:55:11.808Z,6.80
2019-02-28T04:57:40.490Z,6.89
2019-02-28T05:00:17.147Z,6.89
2019-02-28T05:02:45.925Z,7.00
2019-02-28T05:05:14.512Z,6.90
2019-02-28T05:07:43.104Z,6.88
2019-02-28T05:10:12.256Z,6.91
2019-02-28T05:12:41.239Z,6.82
2019-02-28T05:15:12.716Z,6.86
2019-02-28T05:17:41.280Z,6.88
2019-02-28T05:20:12.190Z,6.81
2019-02-28T05:22:41.816Z,6.79
2019-02-28T05:25:17.580Z,6.84
2019-02-28T05:27:41.798Z,6.67
2019-02-28T05:30:18.134Z,6.87
2019-02-28T05:32:44.515Z,6.69
2019-02-28T05:35:13.254Z,6.69
2019-02-28T05:37:46.674Z,6.66
2019-02-28T05:40:16.175Z,6.78
2019-02-28T05:42:44.697Z,6.53
2019-02-28T05:45:14.565Z,6.53
2019-02-28T05:47:46.668Z,6.37
2019-02-28T05:50:17.431Z,6.63
2019-02-28T05:52:46.063Z,6.35
2019-02-28T05:55:14.681Z,6.52
2019-02-28T05:57:44.669Z,6.39
2019-02-28T06:00:17.108Z,6.55
2019-02-28T06:02:45.672Z,6.61
2019-02-28T06:05:14.247Z,6.56
2019-02-28T06:07:42.970Z,6.42
2019-02-28T06:10:13.978Z,6.44
2019-02-28T06:12:43.813Z,6.56
2019-02-28T06:15:14.789Z,6.49
2019-02-28T06:17:43.450Z,6.51
2019-02-28T06:20:16.408Z,6.59
2019-02-28T06:22:43.346Z,6.47
2019-02-28T06:25:22.445Z,6.18
2019-02-28T06:27:48.921Z,6.50
2019-02-28T06:30:15.734Z,6.46
2019-02-28T06:32:44.664Z,6.63
2019-02-28T06:35:16.466Z,6.64
2019-02-28T06:37:43.727Z,6.64
2019-02-28T06:40:14.498Z,6.58
2019-02-28T06:42:46.350Z,6.51
2019-02-28T06:45:18.106Z,6.69
2019-02-28T06:47:49.532Z,6.70
2019-02-28T06:50:17.843Z,6.67
2019-02-28T06:52:47.135Z,6.83
2019-02-28T06:55:20.340Z,6.91
2019-02-28T06:57:48.958Z,6.96
2019-02-28T07:00:17.923Z,6.97
2019-02-28T07:02:46.629Z,7.07
2019-02-28T07:05:15.274Z,7.13
2019-02-28T07:07:45.688Z,7.11
2019-02-28T07:10:16.002Z,7.11
2019-02-28T07:12:44.999Z,7.04
2019-02-28T07:15:15.108Z,7.08
2019-02-28T07:17:46.470Z,7.19
2019-02-28T07:20:21.191Z,7.19
2019-02-28T07:22:54.652Z,7.20
2019-02-28T07:25:20.666Z,7.21
2019-02-28T07:27:49.195Z,7.28
2019-02-28T07:30:20.166Z,7.33
2019-02-28T07:32:49.309Z,7.34
2019-02-28T07:35:18.241Z,7.43
2019-02-28T07:37:46.896Z,7.51
2019-02-28T07:40:17.367Z,7.49
2019-02-28T07:42:47.011Z,7.57
2019-02-28T07:45:16.202Z,7.61
2019-02-28T07:47:45.087Z,7.71
2019-02-28T07:50:14.841Z,7.66
2019-02-28T07:52:43.881Z,7.70
2019-02-28T07:55:16.746Z,7.73
2019-02-28T07:57:51.113Z,7.81
2019-02-28T08:00:19.150Z,7.89
2019-02-28T08:02:50.311Z,7.87
2019-02-28T08:05:19.003Z,7.94
2019-02-28T08:07:51.993Z,7.99
2019-02-28T08:10:22.268Z,8.01
2019-02-28T08:12:50.947Z,8.08
2019-02-28T08:15:22.745Z,8.06
2019-02-28T08:17:52.073Z,8.13
2019-02-28T08:20:21.111Z,8.21
2019-02-28T08:22:49.803Z,8.39
2019-02-28T08:25:18.378Z,8.43
2019-02-28T08:27:47.429Z,8.30
2019-02-28T08:30:19.604Z,8.37
2019-02-28T08:32:50.103Z,8.43
2019-02-28T08:35:18.962Z,8.45
2019-02-28T08:37:47.690Z,8.57
2019-02-28T08:40:21.545Z,8.54
2019-02-28T08:42:50.288Z,8.75
2019-02-28T08:45:19.337Z,8.78
2019-02-28T08:47:48.087Z,8.77
2019-02-28T08:50:24.058Z,8.98
2019-02-28T08:53:04.407Z,9.06
2019-02-28T08:55:33.248Z,9.13
2019-02-28T08:58:06.051Z,9.17
2019-02-28T09:00:33.361Z,9.15
2019-02-28T09:03:02.178Z,9.30
2019-02-28T09:05:30.821Z,9.31
2019-02-28T09:07:59.402Z,9.46
2019-02-28T09:10:30.266Z,9.40
2019-02-28T09:12:58.959Z,9.55
2019-02-28T09:15:31.138Z,9.60
2019-02-28T09:17:59.344Z,9.68
2019-02-28T09:20:28.218Z,9.81
2019-02-28T09:23:01.607Z,9.76
2019-02-28T09:25:27.174Z,9.85
2019-02-28T09:27:55.917Z,9.96
2019-02-28T09:30:33.500Z,9.82
2019-02-28T09:33:02.188Z,10.13
2019-02-28T09:35:30.888Z,10.29
2019-02-28T09:38:00.388Z,10.25
2019-02-28T09:40:30.830Z,10.27
2019-02-28T09:43:00.201Z,10.31
2019-02-28T09:45:30.728Z,10.45
2019-02-28T09:48:02.036Z,10.71
2019-02-28T09:50:29.802Z,10.67
2019-02-28T09:52:58.557Z,10.79
2019-02-28T09:55:27.196Z,10.62
2019-02-28T09:57:57.484Z,10.91
2019-02-28T10:00:29.892Z,11.16
2019-02-28T10:02:59.474Z,11.18
2019-02-28T10:05:28.080Z,11.26
2019-02-28T10:08:01.588Z,11.28
2019-02-28T10:10:32.506Z,11.65
2019-02-28T10:13:01.188Z,11.77
2019-02-28T10:15:30.768Z,12.06
2019-02-28T10:18:00.674Z,12.08
2019-02-28T10:20:35.379Z,11.99
2019-02-28T10:23:04.225Z,12.70
2019-02-28T10:25:33.029Z,12.47
2019-02-28T10:28:02.786Z,12.60
2019-02-28T10:30:32.657Z,12.19
2019-02-28T10:33:01.597Z,11.99
2019-02-28T10:35:30.233Z,12.70
2019-02-28T10:37:59.039Z,12.38
2019-02-28T10:40:31.519Z,12.53
2019-02-28T10:43:00.281Z,12.15
2019-02-28T10:45:30.942Z,12.75
2019-02-28T10:48:02.743Z,12.91
2019-02-28T10:50:36.126Z,13.60
2019-02-28T10:53:06.079Z,14.21
2019-02-28T10:55:36.445Z,14.66
2019-02-28T10:58:05.366Z,13.91
2019-02-28T11:00:36.738Z,14.96
2019-02-28T11:03:05.298Z,14.93
2019-02-28T11:05:35.625Z,15.03
2019-02-28T11:08:05.104Z,15.10
2019-02-28T11:10:36.855Z,14.96
2019-02-28T11:13:08.345Z,14.74
2019-02-28T11:15:37.073Z,15.25
2019-02-28T11:18:09.643Z,14.73
2019-02-28T11:20:38.614Z,15.42
2019-02-28T11:23:07.814Z,15.09
2019-02-28T11:25:36.550Z,16.38
2019-02-28T11:28:05.794Z,16.67
2019-02-28T11:30:36.164Z,16.97
2019-02-28T11:33:05.396Z,18.31
2019-02-28T11:35:34.567Z,19.76
2019-02-28T11:38:05.001Z,19.86
2019-02-28T11:40:34.197Z,18.05
2019-02-28T11:43:03.898Z,18.14
2019-02-28T11:45:38.418Z,17.73
2019-02-28T11:48:15.891Z,17.72
2019-02-28T11:50:44.947Z,17.95
2019-02-28T11:53:13.689Z,17.38
2019-02-28T11:55:42.310Z,16.91
2019-02-28T11:58:16.315Z,17.74
2019-02-28T12:00:41.695Z,17.55
2019-02-28T12:03:10.690Z,16.39
2019-02-28T12:05:39.374Z,16.70
2019-02-28T12:08:10.328Z,15.63
2019-02-28T12:10:40.846Z,15.85
2019-02-28T12:13:09.431Z,18.52
2019-02-28T12:15:39.980Z,16.96
2019-02-28T12:18:08.803Z,18.54
2019-02-28T12:20:37.504Z,18.03
2019-02-28T12:23:06.231Z,18.94
2019-02-28T12:25:36.298Z,18.39
2019-02-28T12:28:06.608Z,20.14
2019-02-28T12:30:36.364Z,20.20
2019-02-28T12:33:05.237Z,18.67
2019-02-28T12:35:39.933Z,17.28
2019-02-28T12:38:04.730Z,17.13
2019-02-28T12:40:35.468Z,16.16
2019-02-28T12:43:08.662Z,16.52
2019-02-28T12:45:39.904Z,16.18
2019-02-28T12:48:08.969Z,15.82
2019-02-28T12:50:38.104Z,16.48
2019-02-28T12:53:07.432Z,15.98
2019-02-28T12:55:38.912Z,15.68
2019-02-28T12:58:06.603Z,15.05
2019-02-28T13:00:40.976Z,15.44
2019-02-28T13:03:09.928Z,15.34
2019-02-28T13:05:39.105Z,15.16
2019-02-28T13:08:07.847Z,15.18
2019-02-28T13:10:36.653Z,15.54
2019-02-28T13:13:07.513Z,15.42
2019-02-28T13:15:35.894Z,14.69
2019-02-28T13:18:08.839Z,14.96
2019-02-28T13:20:37.728Z,14.80
2019-02-28T13:23:06.580Z,14.58
2019-02-28T13:25:36.256Z,14.87
2019-02-28T13:28:07.089Z,14.76
2019-02-28T13:30:35.813Z,14.37
2019-02-28T13:33:04.627Z,14.66
2019-02-28T13:35:45.477Z,14.47
2019-02-28T13:38:17.609Z,14.50
2019-02-28T13:40:44.816Z,14.50
2019-02-28T13:43:21.047Z,13.96
2019-02-28T13:45:55.879Z,14.23
2019-02-28T13:48:26.249Z,13.88
2019-02-28T13:50:52.595Z,14.02
2019-02-28T13:53:23.384Z,14.35
2019-02-28T13:55:52.667Z,14.18
2019-02-28T13:58:22.632Z,14.06
2019-02-28T14:00:51.263Z,13.52
2019-02-28T14:03:19.924Z,13.08
2019-02-28T14:05:50.559Z,13.56
2019-02-28T14:08:19.728Z,13.08
2019-02-28T14:10:48.766Z,13.41
2019-02-28T14:13:17.485Z,13.35
2019-02-28T14:15:52.657Z,13.05
2019-02-28T14:18:18.876Z,13.09
2019-02-28T14:20:49.118Z,13.10
2019-02-28T14:23:20.839Z,13.12
2019-02-28T14:25:48.084Z,12.99
2019-02-28T14:28:17.019Z,12.86
2019-02-28T14:30:45.613Z,13.02
2019-02-28T14:33:16.057Z,13.03
2019-02-28T14:35:44.875Z,12.84
2019-02-28T14:38:13.656Z,12.73
2019-02-28T14:40:42.266Z,12.55
2019-02-28T14:43:10.938Z,12.62
2019-02-28T14:45:44.811Z,12.57
2019-02-28T14:48:13.425Z,12.60
2019-02-28T14:50:43.241Z,12.50
2019-02-28T14:53:14.383Z,12.32
2019-02-28T14:55:42.376Z,12.45
2019-02-28T14:58:10.971Z,12.36
2019-02-28T15:00:42.446Z,12.19
2019-02-28T15:03:10.763Z,12.20
2019-02-28T15:05:42.187Z,11.91
2019-02-28T15:08:11.835Z,11.92
2019-02-28T15:10:41.548Z,11.85
2019-02-28T15:13:12.480Z,11.77
2019-02-28T15:15:41.229Z,11.65
2019-02-28T15:18:11.036Z,11.56
2019-02-28T15:20:40.650Z,11.57
2019-02-28T15:23:09.458Z,11.52
2019-02-28T15:25:39.105Z,11.46
2019-02-28T15:28:10.700Z,11.38
2019-02-28T15:30:39.865Z,11.34
2019-02-28T15:33:08.592Z,11.24
2019-02-28T15:35:40.041Z,11.23
2019-02-28T15:38:10.032Z,11.12
2019-02-28T15:40:42.264Z,11.08
2019-02-28T15:43:11.215Z,10.96
2019-02-28T15:45:40.243Z,10.89
2019-02-28T15:48:09.434Z,10.91
2019-02-28T15:50:38.083Z,10.90
2019-02-28T15:53:11.353Z,10.72
2019-02-28T15:55:39.256Z,10.77
2019-02-28T15:58:07.969Z,10.70
2019-02-28T16:00:37.526Z,10.58
2019-02-28T16:03:06.642Z,10.55
2019-02-28T16:05:42.534Z,10.46
2019-02-28T16:08:10.377Z,10.42
2019-02-28T16:10:37.102Z,10.32
2019-02-28T16:13:07.213Z,10.30
2019-02-28T16:15:38.056Z,10.25
2019-02-28T16:18:08.811Z,10.15
2019-02-28T16:20:38.298Z,10.08
2019-02-28T16:23:07.169Z,10.01
2019-02-28T16:25:39.600Z,10.00
2019-02-28T16:28:09.127Z,9.91
2019-02-28T16:30:39.248Z,9.82
2019-02-28T16:33:07.958Z,9.77
2019-02-28T16:35:36.688Z,9.69
2019-02-28T16:38:06.348Z,9.70
2019-02-28T16:40:36.683Z,9.59
2019-02-28T16:43:05.385Z,9.50
2019-02-28T16:45:37.500Z,9.44
2019-02-28T16:48:07.611Z,9.42
2019-02-28T16:50:36.634Z,9.33
2019-02-28T16:53:05.998Z,9.35
2019-02-28T16:55:34.691Z,9.29
2019-02-28T16:58:03.276Z,9.24
2019-02-28T17:00:31.888Z,9.13
2019-02-28T17:03:00.452Z,9.15
2019-02-28T17:05:29.098Z,9.07
2019-02-28T17:07:57.705Z,9.04
2019-02-28T17:10:30.755Z,9.09
2019-02-28T17:13:07.270Z,8.96
2019-02-28T17:15:39.724Z,8.96
2019-02-28T17:18:18.420Z,8.75
2019-02-28T17:20:46.010Z,8.80
2019-02-28T17:23:14.637Z,8.86
2019-02-28T17:25:43.651Z,8.80
2019-02-28T17:28:15.258Z,8.69
2019-02-28T17:30:52.337Z,8.62
2019-02-28T17:33:21.008Z,8.38
2019-02-28T17:35:49.678Z,8.44
2019-02-28T17:38:19.765Z,8.39
2019-02-28T17:40:48.434Z,8.30
2019-02-28T17:43:17.114Z,8.22
2019-02-28T17:45:47.269Z,8.11
2019-02-28T17:48:36.766Z,8.02
2019-02-28T17:51:22.291Z,7.98
2019-02-28T17:53:56.835Z,7.83
2019-02-28T17:56:46.877Z,7.81
2019-02-28T17:59:47.468Z,7.72
2019-02-28T18:02:38.103Z,7.72
2019-02-28T18:05:19.546Z,7.61
2019-02-28T18:08:15.138Z,7.65
2019-02-28T18:11:00.058Z,7.62
2019-02-28T18:13:55.266Z,7.49
2019-02-28T18:16:25.837Z,7.41
2019-02-28T18:19:00.557Z,7.32
2019-02-28T18:21:41.120Z,7.23
2019-02-28T18:24:17.184Z,7.29
2019-02-28T18:27:04.079Z,7.19
2019-02-28T18:30:05.381Z,7.06
2019-02-28T18:32:34.857Z,7.07
2019-02-28T18:35:04.064Z,7.06
2019-02-28T18:37:32.792Z,6.96
2019-02-28T18:40:01.396Z,6.97
2019-02-28T18:42:30.040Z,7.04
2019-02-28T18:44:59.856Z,6.96
2019-02-28T18:47:28.512Z,6.94
2019-02-28T18:49:57.092Z,6.88
2019-02-28T18:52:25.705Z,6.76
2019-02-28T18:54:54.317Z,6.75
2019-02-28T18:57:22.911Z,6.68
2019-02-28T18:59:52.290Z,6.68
2019-02-28T19:02:20.894Z,6.65
2019-02-28T19:04:50.832Z,6.63
2019-02-28T19:07:19.526Z,6.57
2019-02-28T19:09:48.095Z,6.52
2019-02-28T19:12:16.709Z,6.52
2019-02-28T19:14:47.101Z,6.37
2019-02-28T19:17:15.707Z,6.31
2019-02-28T19:19:44.349Z,6.36
2019-02-28T19:22:12.993Z,6.33
2019-02-28T19:24:41.630Z,6.45
2019-02-28T19:27:10.323Z,6.44
2019-02-28T19:29:38.862Z,6.30
2019-02-28T19:32:07.494Z,6.25
2019-02-28T19:34:36.143Z,6.16
2019-02-28T19:37:04.897Z,6.20
2019-02-28T19:39:33.440Z,6.21
2019-02-28T19:42:02.322Z,6.08
2019-02-28T19:44:31.099Z,6.10
2019-02-28T19:46:59.804Z,6.19
2019-02-28T19:49:34.127Z,6.12
2019-02-28T19:52:02.805Z,6.15
2019-02-28T19:54:31.376Z,6.07
2019-02-28T19:57:00.006Z,6.07
2019-02-28T19:59:30.359Z,6.11
2019-02-28T20:01:59.123Z,6.08
2019-02-28T20:04:27.777Z,6.14
2019-02-28T20:06:56.496Z,6.22
2019-02-28T20:09:25.565Z,6.27
2019-02-28T20:11:54.170Z,6.39
2019-02-28T20:14:25.342Z,6.46
2019-02-28T20:16:54.445Z,6.49
2019-02-28T20:19:23.074Z,6.53
2019-02-28T20:21:52.839Z,6.54
2019-02-28T20:24:21.643Z,6.48
2019-02-28T20:26:50.909Z,6.56
2019-02-28T20:29:19.557Z,6.51
2019-02-28T20:31:48.654Z,6.57
2019-02-28T20:34:17.273Z,6.64
2019-02-28T20:36:47.074Z,6.71
2019-02-28T20:39:15.830Z,6.69
2019-02-28T20:41:45.060Z,6.66
2019-02-28T20:44:13.709Z,6.67
2019-02-28T20:46:42.438Z,6.58
2019-02-28T20:49:11.001Z,6.73
2019-02-28T20:51:39.609Z,6.72
2019-02-28T20:54:08.267Z,6.56
2019-02-28T20:56:36.819Z,6.65
2019-02-28T20:59:05.487Z,6.76
2019-02-28T21:01:34.071Z,6.71
2019-02-28T21:04:03.020Z,6.75
2019-02-28T21:06:31.626Z,6.73
2019-02-28T21:09:00.669Z,6.74
2019-02-28T21:11:29.770Z,6.78
2019-02-28T21:13:58.473Z,6.80
2019-02-28T21:16:28.678Z,6.74
2019-02-28T21:18:58.309Z,6.78
2019-02-28T21:21:28.108Z,6.80
2019-02-28T21:23:56.747Z,6.66
2019-02-28T21:26:25.474Z,6.59
2019-02-28T21:28:54.332Z,6.54
2019-02-28T21:31:23.858Z,6.66
2019-02-28T21:33:53.446Z,6.66
2019-02-28T21:36:22.188Z,6.75
2019-02-28T21:38:50.835Z,6.65
2019-02-28T21:41:19.435Z,6.64
2019-02-28T21:43:48.165Z,6.58
2019-02-28T21:46:17.325Z,6.62
2019-02-28T21:48:47.910Z,6.58
2019-02-28T21:51:16.472Z,6.68
2019-02-28T21:53:45.025Z,6.77
2019-02-28T21:56:13.623Z,6.71
2019-02-28T21:58:42.257Z,6.73
2019-02-28T22:01:11.032Z,6.41
2019-02-28T22:03:39.706Z,6.65
2019-02-28T22:06:08.343Z,6.67
2019-02-28T22:08:37.063Z,6.59
2019-02-28T22:11:07.580Z,6.60
2019-02-28T22:13:36.141Z,6.49
2019-02-28T22:16:04.665Z,6.45
2019-02-28T22:18:33.869Z,6.58
2019-02-28T22:21:02.398Z,6.50
2019-02-28T22:23:31.001Z,6.50
2019-02-28T22:25:59.531Z,6.50
2019-02-28T22:28:28.438Z,6.44
2019-02-28T22:30:58.612Z,6.22
2019-02-28T22:33:43.819Z,6.35
2019-02-28T22:36:17.886Z,6.53
2019-02-28T22:38:46.658Z,6.38
2019-02-28T22:41:15.203Z,6.50
2019-02-28T22:43:44.105Z,6.39
2019-02-28T22:46:12.630Z,6.50
2019-02-28T22:48:41.323Z,6.24
2019-02-28T22:51:09.857Z,6.21
2019-02-28T22:53:38.425Z,6.45
2019-02-28T22:56:06.932Z,6.44
2019-02-28T22:58:35.501Z,6.23
2019-02-28T23:01:11.691Z,6.21
2019-02-28T23:03:40.422Z,6.24
2019-02-28T23:06:09.005Z,6.41
2019-02-28T23:08:37.656Z,6.36
2019-02-28T23:11:06.407Z,6.29
2019-02-28T23:13:35.019Z,6.11
2019-02-28T23:16:03.664Z,6.15
2019-02-28T23:18:32.220Z,6.10
2019-02-28T23:21:00.765Z,6.24
2019-02-28T23:23:29.733Z,6.17
2019-02-28T23:26:09.914Z,6.19
2019-02-28T23:28:41.846Z,6.16
2019-02-28T23:31:30.410Z,6.06
2019-02-28T23:34:02.173Z,6.09
2019-02-28T23:36:30.794Z,6.12
2019-02-28T23:38:59.471Z,5.83
2019-02-28T23:41:28.104Z,5.70
2019-02-28T23:43:56.673Z,5.83
2019-02-28T23:46:25.282Z,5.77
2019-02-28T23:48:53.810Z,5.66
2019-02-28T23:51:22.587Z,5.74
2019-02-28T23:53:51.093Z,5.51
2019-02-28T23:56:19.721Z,5.40
2019-02-28T23:58:48.258Z,5.48
